หน้าหลัก
METAR-TAF:

METAR-TAF

ท่าอากาศยาน :

ฟูนะฟูตี, ตูวาลู

ละติจูด: 08-31S, ลองจิจูด: 179-13E, ความสูง: 1 ม.

การสังเกตสภาพอากาศปัจจุบัน

รายงานได้ทำขึ้นเมื่อ 19 นาทีที่แล้ว ณ เวลา 07:00 UTC
ลม 11 นอตจากตะวันออก
อุณหภูมิ 30°C
ความชื้น 79%
ความกดอากาศ 1011 hPa
ทัศนวิสัย 10 กม. หรือมากกว่า
มีเมฆน้อยที่ความสูง 1800 ฟุต, คิวมูลัสที่ก่อตัวขึ้นสูง.
มีเมฆกระจายเป็นบางส่วนที่ความสูง 2000 ฟุต

METAR: NGFU 300700Z 10011KT 9999 FEW018TCU SCT020 30/26 Q1011

เวลา: 19:19 (07:19 UTC)

การพยากรณ์

รายงานได้ทำขึ้นเมื่อ 2 ชั่วโมงและ 16 นาทีที่แล้ว ณ เวลา 05:03 UTC
การพยากรณ์มีผลตั้งแต่วันที่ 30 ณ เวลา 06 UTC จนถึงวันที่ 31 ณ เวลา 06 UTC
ลม 8 นอตจากตะวันออก
ทัศนวิสัย 10 กม. หรือมากกว่า
มีเมฆน้อยที่ความสูง 2000 ฟุต
มีเมฆกระจายเป็นบางส่วนที่ความสูง 4000 ฟุต
ความน่าจะเป็น 40% :
ชั่วคราว
ตั้งแต่วันที่ 30 ณ เวลา 12 UTC จนถึงวันที่ 30 ณ เวลา 21 UTC
ทัศนวิสัย: 5000 ม.
มีเมฆน้อยที่ความสูง 1600 ฟุต, คิวมูโลนิมบัส.
พายุฝนฟ้าคะนอง, ฝน,

TAF: NGFU 300503Z 3006/3106 09008KT 9999 FEW020 SCT040 PROB40 TEMPO 3012/3021 5000 TSRA FEW016CB

สังเกตการณ์สภาพอากาศและพยากรณ์อากาศของสนามบินมากกว่า 4000 แห่ง (รายงาน METAR และ TAF).

สถานีที่ดูได้จะแสดงไว้ด้วยจุดสีเหลืองและสีแดงบนแผนที่.

เลื่อนเมาส์ไปเหนือจุดเพื่อดูชื่อสถานี.

แล้วคลิกเพื่อดูสังเกตการณ์และการพยากรณ์สภาพอากาศ.

ในการเปลี่ยนแผนที่: คลิกที่ปุ่มสีเขียวที่มีกากบาทสีดำเพื่อซูมเข้า; ที่ปุ่มสีเขียวที่มีขีดเพื่อซูมออก; หรือที่ลูกศรสีเขียวเพื่อไปยังแผนที่ที่อยู่ติดกัน.


METAR-TAF: